Onsted, Michigan
Current Conditions -  °F | °C
As of 4:53 PM on Monday 26 Jan 2015 (Local Time) from KADG Reporting Station
Clear Clear  
Wind Chill: 24°   Ceiling: Unl
Heat Index: 24°   Visibility: 10mi
Dew Point:   Wind: 0mph
Humidity: 48%   Direction: NA
Pressure: 29.92"   Gusts: NA
Location:  42.01°N, 84.19°W
Report Text: KADG 262153Z AUTO 00000KT 10SM CLR M04/M14 A2992 RMK AO2 SLP146 T10441139
Loading
Personal Weather Stations






























Interactive Weather Map New forecast layout! Learn more

10-Day Weather Forecast

Advertisements
Track Severe Weather on mobile